createdAt,value
2022-08-08T00:00:50.580Z,101191.64
2022-08-08T00:03:53.201Z,101191.86
2022-08-08T00:06:52.586Z,101188.73
2022-08-08T00:10:12.319Z,101186.90
2022-08-08T00:13:20.697Z,101185.68
2022-08-08T00:16:12.348Z,101187.69
2022-08-08T00:19:04.777Z,101187.10
2022-08-08T00:21:58.090Z,101191.69
2022-08-08T00:24:47.417Z,101190.66
2022-08-08T00:27:21.207Z,101189.48
2022-08-08T00:30:15.866Z,101185.73
2022-08-08T00:33:04.412Z,101185.45
2022-08-08T00:35:51.373Z,101184.85
2022-08-08T00:38:54.578Z,101184.14
2022-08-08T00:41:54.483Z,101182.81
2022-08-08T00:44:44.085Z,101180.96
2022-08-08T00:48:06.363Z,101182.50
2022-08-08T00:51:51.139Z,101189.13
2022-08-08T00:54:57.686Z,101189.81
2022-08-08T00:58:13.550Z,101186.00
2022-08-08T01:01:38.046Z,101189.77
2022-08-08T01:05:07.157Z,101192.88
2022-08-08T01:08:17.834Z,101191.17
2022-08-08T01:11:27.008Z,101189.80
2022-08-08T01:15:00.395Z,101186.89
2022-08-08T01:18:50.636Z,101188.66
2022-08-08T01:22:07.195Z,101194.58
2022-08-08T01:24:57.481Z,101196.52
2022-08-08T01:27:44.290Z,101198.69
2022-08-08T01:30:53.798Z,101200.61
2022-08-08T01:33:43.024Z,101198.18
2022-08-08T01:37:21.778Z,101200.52
2022-08-08T01:40:28.330Z,101200.45
2022-08-08T01:43:34.796Z,101200.08
2022-08-08T01:46:41.387Z,101196.75
2022-08-08T01:49:49.028Z,101195.92
2022-08-08T01:54:08.258Z,101197.55
2022-08-08T01:56:29.554Z,101197.78
2022-08-08T02:00:00.771Z,101192.98
2022-08-08T02:03:55.538Z,101196.20
2022-08-08T02:06:57.685Z,101196.83
2022-08-08T02:10:04.426Z,101197.10
2022-08-08T02:13:01.168Z,101199.09
2022-08-08T02:15:45.960Z,101199.89
2022-08-08T02:18:35.080Z,101199.32
2022-08-08T02:21:43.574Z,101205.10
2022-08-08T02:24:52.553Z,101205.80
2022-08-08T02:27:53.896Z,101209.41
2022-08-08T02:31:43.463Z,101207.48
2022-08-08T02:34:33.116Z,101207.92
2022-08-08T02:37:52.520Z,101206.23
2022-08-08T02:40:50.092Z,101209.17
2022-08-08T02:44:42.437Z,101213.07
2022-08-08T02:47:27.503Z,101216.55
2022-08-08T02:50:47.289Z,101215.18
2022-08-08T02:54:13.715Z,101218.16
2022-08-08T02:57:25.814Z,101220.16
2022-08-08T03:01:17.488Z,101220.42
2022-08-08T03:05:05.456Z,101221.31
2022-08-08T03:07:58.518Z,101218.13
2022-08-08T03:11:13.883Z,101223.11
2022-08-08T03:15:59.846Z,101221.37
2022-08-08T03:18:04.862Z,101222.40
2022-08-08T03:20:53.390Z,101221.70
2022-08-08T03:23:39.687Z,101223.14
2022-08-08T03:26:41.956Z,101227.88
2022-08-08T03:29:54.783Z,101235.48
2022-08-08T03:32:53.422Z,101241.91
2022-08-08T03:35:33.231Z,101238.09
2022-08-08T03:38:55.894Z,101232.85
2022-08-08T03:40:56.879Z,101231.45
2022-08-08T03:43:38.315Z,101230.49
2022-08-08T03:46:09.707Z,101235.71
2022-08-08T03:49:09.379Z,101237.64
2022-08-08T03:51:47.093Z,101237.63
2022-08-08T03:54:41.620Z,101241.55
2022-08-08T03:58:32.186Z,101246.13
2022-08-08T04:00:18.151Z,101239.20
2022-08-08T04:02:57.657Z,101241.20
2022-08-08T04:05:35.027Z,101241.53
2022-08-08T04:08:11.868Z,101241.56
2022-08-08T04:11:11.034Z,101239.82
2022-08-08T04:14:03.170Z,101241.33
2022-08-08T04:16:38.868Z,101246.99
2022-08-08T04:19:23.757Z,101248.00
2022-08-08T04:21:58.500Z,101249.52
2022-08-08T04:24:32.099Z,101254.27
2022-08-08T04:27:07.394Z,101254.41
2022-08-08T04:29:40.040Z,101256.20
2022-08-08T04:32:40.074Z,101254.48
2022-08-08T04:35:13.491Z,101262.07
2022-08-08T04:37:44.794Z,101264.40
2022-08-08T04:40:19.865Z,101262.28
2022-08-08T04:42:57.984Z,101261.61
2022-08-08T04:45:42.968Z,101261.92
2022-08-08T04:48:12.438Z,101263.83
2022-08-08T04:50:46.230Z,101268.61
2022-08-08T04:54:36.047Z,101269.44
2022-08-08T04:56:07.778Z,101268.71
2022-08-08T04:58:40.466Z,101265.54
2022-08-08T05:01:11.269Z,101268.11
2022-08-08T05:04:08.121Z,101270.88
2022-08-08T05:06:39.473Z,101275.05
2022-08-08T05:09:10.310Z,101274.23
2022-08-08T05:11:42.079Z,101269.98
2022-08-08T05:14:20.710Z,101272.42
2022-08-08T05:17:01.089Z,101274.73
2022-08-08T05:20:12.037Z,101277.27
2022-08-08T05:22:32.105Z,101276.90
2022-08-08T05:25:02.147Z,101280.88
2022-08-08T05:27:41.515Z,101281.21
2022-08-08T05:30:12.043Z,101281.55
2022-08-08T05:32:46.172Z,101286.27
2022-08-08T05:35:23.935Z,101290.36
2022-08-08T05:38:11.556Z,101293.71
2022-08-08T05:41:08.890Z,101297.63
2022-08-08T05:44:03.184Z,101296.43
2022-08-08T05:46:38.030Z,101295.70
2022-08-08T05:49:11.249Z,101300.53
2022-08-08T05:51:49.013Z,101304.10
2022-08-08T05:54:49.654Z,101299.25
2022-08-08T05:57:21.037Z,101298.90
2022-08-08T06:00:22.773Z,101300.10
2022-08-08T06:03:17.208Z,101303.08
2022-08-08T06:05:59.614Z,101306.89
2022-08-08T06:08:37.874Z,101315.44
2022-08-08T06:11:13.425Z,101320.37
2022-08-08T06:13:49.573Z,101322.69
2022-08-08T06:16:24.994Z,101325.89
2022-08-08T06:19:15.876Z,101323.38
2022-08-08T06:21:51.760Z,101327.70
2022-08-08T06:24:31.069Z,101331.58
2022-08-08T06:27:10.854Z,101334.60
2022-08-08T06:30:20.342Z,101333.88
2022-08-08T06:33:02.246Z,101339.41
2022-08-08T06:36:07.221Z,101341.84
2022-08-08T06:38:29.823Z,101341.06
2022-08-08T06:41:07.420Z,101339.84
2022-08-08T06:43:40.118Z,101340.60
2022-08-08T06:46:23.768Z,101340.08
2022-08-08T06:48:54.162Z,101336.14
2022-08-08T06:51:24.121Z,101331.04
2022-08-08T06:54:03.200Z,101333.34
2022-08-08T06:56:40.425Z,101332.91
2022-08-08T06:59:16.488Z,101333.75
2022-08-08T07:02:27.655Z,101332.55
2022-08-08T07:05:07.020Z,101335.52
2022-08-08T07:07:55.490Z,101339.05
2022-08-08T07:10:28.085Z,101333.82
2022-08-08T07:13:06.340Z,101332.80
2022-08-08T07:16:04.863Z,101333.00
2022-08-08T07:18:55.881Z,101329.91
2022-08-08T07:21:42.335Z,101327.83
2022-08-08T07:24:22.960Z,101329.27
2022-08-08T07:26:59.282Z,101326.59
2022-08-08T07:30:01.744Z,101328.62
2022-08-08T07:32:27.734Z,101328.70
2022-08-08T07:35:03.090Z,101333.27
2022-08-08T07:37:56.338Z,101335.37
2022-08-08T07:40:41.525Z,101333.25
2022-08-08T07:43:13.861Z,101331.45
2022-08-08T07:45:59.764Z,101332.44
2022-08-08T07:48:37.996Z,101331.53
2022-08-08T07:51:23.982Z,101327.17
2022-08-08T07:54:36.737Z,101330.06
2022-08-08T07:57:52.823Z,101332.34
2022-08-08T08:00:32.213Z,101335.98
2022-08-08T08:03:23.363Z,101334.16
2022-08-08T08:05:58.407Z,101332.52
2022-08-08T08:09:04.379Z,101331.63
2022-08-08T08:11:52.542Z,101330.14
2022-08-08T08:14:59.276Z,101329.66
2022-08-08T08:17:47.705Z,101326.58
2022-08-08T08:20:30.436Z,101328.29
2022-08-08T08:23:05.384Z,101330.08
2022-08-08T08:25:42.980Z,101325.50
2022-08-08T08:28:23.947Z,101327.24
2022-08-08T08:30:56.742Z,101328.43
2022-08-08T08:33:27.132Z,101326.14
2022-08-08T08:36:18.556Z,101330.30
2022-08-08T08:38:49.566Z,101329.26
2022-08-08T08:41:24.952Z,101328.62
2022-08-08T08:44:14.283Z,101324.44
2022-08-08T08:46:51.029Z,101328.48
2022-08-08T08:49:33.546Z,101326.11
2022-08-08T08:52:10.954Z,101323.59
2022-08-08T08:54:40.793Z,101321.00
2022-08-08T08:57:17.133Z,101323.70
2022-08-08T08:59:59.074Z,101320.08
2022-08-08T09:02:41.194Z,101315.41
2022-08-08T09:05:48.699Z,101313.84
2022-08-08T09:08:12.293Z,101311.83
2022-08-08T09:10:43.672Z,101309.46
2022-08-08T09:13:18.780Z,101315.58
2022-08-08T09:16:02.843Z,101312.49
2022-08-08T09:18:34.636Z,101313.09
2022-08-08T09:21:58.406Z,101313.77
2022-08-08T09:23:59.063Z,101311.93
2022-08-08T09:26:52.551Z,101311.15
2022-08-08T09:29:25.034Z,101314.19
2022-08-08T09:32:05.305Z,101312.77
2022-08-08T09:34:51.513Z,101311.23
2022-08-08T09:37:57.866Z,101318.20
2022-08-08T09:40:21.940Z,101320.40
2022-08-08T09:43:40.709Z,101315.32
2022-08-08T09:46:25.589Z,101318.35
2022-08-08T09:49:18.639Z,101308.78
2022-08-08T09:52:06.079Z,101307.71
2022-08-08T09:54:49.974Z,101311.67
2022-08-08T09:57:45.615Z,101315.98
2022-08-08T10:00:53.204Z,101314.03
2022-08-08T10:03:13.742Z,101307.95
2022-08-08T10:05:46.801Z,101317.59
2022-08-08T10:08:18.793Z,101315.94
2022-08-08T10:12:22.054Z,101316.16
2022-08-08T10:14:00.075Z,101316.66
2022-08-08T10:16:46.914Z,101317.10
2022-08-08T10:19:20.224Z,101317.70
2022-08-08T10:21:55.319Z,101311.64
2022-08-08T10:24:29.224Z,101311.70
2022-08-08T10:27:06.239Z,101310.23
2022-08-08T10:29:58.445Z,101307.29
2022-08-08T10:32:33.917Z,101307.04
2022-08-08T10:36:01.813Z,101304.45
2022-08-08T10:38:08.715Z,101304.31
2022-08-08T10:40:40.380Z,101308.44
2022-08-08T10:43:20.034Z,101307.45
2022-08-08T10:45:55.719Z,101301.25
2022-08-08T10:48:58.486Z,101297.49
2022-08-08T10:51:40.962Z,101293.57
2022-08-08T10:54:21.585Z,101294.95
2022-08-08T10:57:04.528Z,101297.99
2022-08-08T10:59:39.401Z,101294.27
2022-08-08T11:02:11.599Z,101293.17
2022-08-08T11:04:53.104Z,101290.34
2022-08-08T11:08:31.677Z,101291.16
2022-08-08T11:10:29.689Z,101290.19
2022-08-08T11:13:18.967Z,101284.73
2022-08-08T11:15:58.973Z,101287.57
2022-08-08T11:18:34.336Z,101284.67
2022-08-08T11:21:09.842Z,101282.86
2022-08-08T11:23:44.834Z,101280.72
2022-08-08T11:26:38.295Z,101284.17
2022-08-08T11:29:41.475Z,101274.38
2022-08-08T11:32:14.924Z,101274.25
2022-08-08T11:38:35.275Z,101268.77
2022-08-08T11:40:32.622Z,101269.31
2022-08-08T11:43:02.654Z,101268.43
2022-08-08T11:45:43.796Z,101268.89
2022-08-08T11:48:23.750Z,101276.11
2022-08-08T11:51:01.037Z,101270.36
2022-08-08T11:53:59.078Z,101265.80
2022-08-08T11:56:42.209Z,101266.05
2022-08-08T11:59:16.066Z,101264.15
2022-08-08T12:01:45.092Z,101263.34
2022-08-08T12:04:14.140Z,101263.69
2022-08-08T12:06:44.805Z,101262.19
2022-08-08T12:09:19.013Z,101265.73
2022-08-08T12:11:50.355Z,101260.82
2022-08-08T12:14:29.286Z,101262.99
2022-08-08T12:17:07.988Z,101268.23
2022-08-08T12:19:51.024Z,101268.80
2022-08-08T12:22:21.343Z,101263.53
2022-08-08T12:24:56.100Z,101258.85
2022-08-08T12:27:27.020Z,101260.66
2022-08-08T12:30:18.631Z,101263.80
2022-08-08T12:32:55.091Z,101262.16
2022-08-08T12:35:24.334Z,101259.52
2022-08-08T12:38:08.882Z,101256.50
2022-08-08T12:40:55.874Z,101258.66
2022-08-08T12:43:48.006Z,101259.43
2022-08-08T12:46:26.640Z,101256.61
2022-08-08T12:51:58.372Z,101254.15
2022-08-08T12:54:37.705Z,101251.27
2022-08-08T12:57:38.343Z,101248.84
2022-08-08T13:00:34.116Z,101247.51
2022-08-08T13:03:11.252Z,101246.86
2022-08-08T13:06:05.035Z,101245.92
2022-08-08T13:08:53.509Z,101246.05
2022-08-08T13:12:24.624Z,101245.67
2022-08-08T13:14:53.478Z,101241.80
2022-08-08T13:18:09.407Z,101240.28
2022-08-08T13:20:22.902Z,101238.08
2022-08-08T13:25:50.081Z,101238.19
2022-08-08T13:28:32.122Z,101237.25
2022-08-08T13:31:05.355Z,101232.65
2022-08-08T13:33:42.103Z,101230.39
2022-08-08T13:36:12.571Z,101226.99
2022-08-08T13:38:42.739Z,101228.23
2022-08-08T13:41:16.559Z,101223.79
2022-08-08T13:43:50.735Z,101223.73
2022-08-08T13:46:26.960Z,101223.50
2022-08-08T13:49:12.225Z,101221.84
2022-08-08T13:52:10.158Z,101220.77
2022-08-08T13:54:49.438Z,101222.20
2022-08-08T13:58:06.521Z,101218.59
2022-08-08T14:00:21.582Z,101212.73
2022-08-08T14:03:10.917Z,101210.72
2022-08-08T14:06:00.774Z,101211.31
2022-08-08T14:08:35.158Z,101212.42
2022-08-08T14:11:04.728Z,101213.98
2022-08-08T14:13:35.828Z,101215.11
2022-08-08T14:16:25.509Z,101209.86
2022-08-08T14:19:02.910Z,101213.84
2022-08-08T14:21:52.266Z,101213.83
2022-08-08T14:24:34.085Z,101213.38
2022-08-08T14:27:07.903Z,101218.58
2022-08-08T14:29:39.484Z,101220.62
2022-08-08T14:32:17.870Z,101224.39
2022-08-08T14:35:04.533Z,101224.98
2022-08-08T14:37:59.752Z,101223.96
2022-08-08T14:40:30.401Z,101225.08
2022-08-08T14:43:01.402Z,101226.72
2022-08-08T14:46:01.343Z,101229.09
2022-08-08T14:48:34.099Z,101225.47
2022-08-08T14:51:06.978Z,101223.58
2022-08-08T14:53:55.012Z,101225.39
2022-08-08T14:56:26.441Z,101225.31
2022-08-08T14:58:56.170Z,101219.30
2022-08-08T15:01:41.024Z,101218.28
2022-08-08T15:04:11.504Z,101217.69
2022-08-08T15:06:42.474Z,101219.75
2022-08-08T15:09:13.315Z,101220.63
2022-08-08T15:11:46.261Z,101221.77
2022-08-08T15:14:25.175Z,101217.52
2022-08-08T15:16:57.365Z,101215.24
2022-08-08T15:19:32.042Z,101215.79
2022-08-08T15:22:01.211Z,101213.83
2022-08-08T15:24:36.483Z,101214.27
2022-08-08T15:27:58.380Z,101213.33
2022-08-08T15:29:54.718Z,101216.69
2022-08-08T15:32:31.237Z,101216.38
2022-08-08T15:35:01.117Z,101214.39
2022-08-08T15:37:33.993Z,101212.57
2022-08-08T15:40:03.956Z,101211.19
2022-08-08T15:42:33.375Z,101211.11
2022-08-08T15:45:02.724Z,101212.34
2022-08-08T15:47:32.360Z,101212.67
2022-08-08T15:50:02.376Z,101210.35
2022-08-08T15:52:34.210Z,101212.89
2022-08-08T15:55:09.325Z,101208.23
2022-08-08T15:57:39.809Z,101208.39
2022-08-08T16:00:27.273Z,101207.59
2022-08-08T16:02:59.128Z,101208.73
2022-08-08T16:05:35.623Z,101210.17
2022-08-08T16:08:17.797Z,101207.73
2022-08-08T16:13:04.839Z,101204.94
2022-08-08T16:13:43.872Z,101202.73
2022-08-08T16:16:17.486Z,101203.63
2022-08-08T16:18:56.322Z,101203.66
2022-08-08T16:21:31.463Z,101200.84
2022-08-08T16:24:10.142Z,101197.34
2022-08-08T16:26:42.438Z,101200.20
2022-08-08T16:29:16.375Z,101201.61
2022-08-08T16:31:50.159Z,101203.66
2022-08-08T16:34:21.833Z,101201.10
2022-08-08T16:36:53.742Z,101199.35
2022-08-08T16:39:49.102Z,101198.11
2022-08-08T16:42:18.701Z,101201.60
2022-08-08T16:44:54.418Z,101202.60
2022-08-08T16:47:40.070Z,101202.70
2022-08-08T16:50:16.576Z,101199.58
2022-08-08T16:55:06.930Z,101200.34
2022-08-08T16:55:52.336Z,101200.85
2022-08-08T16:58:26.729Z,101201.93
2022-08-08T17:00:57.891Z,101205.43
2022-08-08T17:03:58.591Z,101206.73
2022-08-08T17:06:36.062Z,101208.23
2022-08-08T17:09:15.605Z,101207.48
2022-08-08T17:11:49.060Z,101206.83
2022-08-08T17:14:27.262Z,101207.38
2022-08-08T17:16:58.820Z,101213.98
2022-08-08T17:19:31.956Z,101211.95
2022-08-08T17:22:10.990Z,101207.95
2022-08-08T17:24:43.629Z,101212.45
2022-08-08T17:27:28.956Z,101214.64
2022-08-08T17:29:58.911Z,101216.48
2022-08-08T17:32:34.389Z,101219.48
2022-08-08T17:35:56.001Z,101221.51
2022-08-08T17:38:06.823Z,101219.88
2022-08-08T17:40:36.389Z,101221.21
2022-08-08T17:43:08.153Z,101224.55
2022-08-08T17:45:41.714Z,101221.16
2022-08-08T17:48:21.057Z,101224.95
2022-08-08T17:51:01.206Z,101227.48
2022-08-08T17:53:42.621Z,101224.82
2022-08-08T17:56:15.689Z,101228.31
2022-08-08T17:58:46.616Z,101231.06
2022-08-08T18:01:43.636Z,101236.55
2022-08-08T18:04:09.280Z,101236.81
2022-08-08T18:06:51.234Z,101241.01
2022-08-08T18:09:20.448Z,101245.66
2022-08-08T18:11:51.062Z,101246.41
2022-08-08T18:14:22.347Z,101250.14
2022-08-08T18:16:52.560Z,101252.44
2022-08-08T18:19:24.135Z,101256.20
2022-08-08T18:21:59.772Z,101259.73
2022-08-08T18:24:30.575Z,101264.23
2022-08-08T18:27:17.149Z,101268.58
2022-08-08T18:29:46.993Z,101272.77
2022-08-08T18:32:17.825Z,101273.28
2022-08-08T18:34:49.883Z,101275.45
2022-08-08T18:37:34.788Z,101278.64
2022-08-08T18:40:05.446Z,101283.39
2022-08-08T18:42:45.666Z,101283.45
2022-08-08T18:45:45.173Z,101288.16
2022-08-08T18:48:18.413Z,101293.41
2022-08-08T18:50:50.217Z,101296.64
2022-08-08T18:54:00.542Z,101297.57
2022-08-08T18:56:34.182Z,101298.95
2022-08-08T18:59:22.917Z,101301.10
2022-08-08T19:02:28.557Z,101303.54
2022-08-08T19:04:49.733Z,101304.46
2022-08-08T19:07:30.049Z,101297.94
2022-08-08T19:10:17.829Z,101300.92
2022-08-08T19:12:58.764Z,101301.11
2022-08-08T19:15:37.376Z,101305.20
2022-08-08T19:18:33.331Z,101303.69
2022-08-08T19:21:00.006Z,101306.05
2022-08-08T19:23:35.288Z,101306.84
2022-08-08T19:26:30.382Z,101309.24
2022-08-08T19:29:05.102Z,101312.81
2022-08-08T19:32:33.320Z,101310.17
2022-08-08T19:36:07.897Z,101314.52
2022-08-08T19:39:37.448Z,101316.66
2022-08-08T19:46:46.717Z,101320.54
2022-08-08T19:50:41.424Z,101323.44
2022-08-08T19:54:37.999Z,101323.16
2022-08-08T19:57:15.861Z,101323.79
2022-08-08T19:59:54.922Z,101328.27
2022-08-08T20:02:27.044Z,101331.38
2022-08-08T20:05:00.808Z,101332.59
2022-08-08T20:08:29.473Z,101333.33
2022-08-08T20:10:23.357Z,101333.95
2022-08-08T20:12:59.140Z,101332.13
2022-08-08T20:16:00.019Z,101335.67
2022-08-08T20:18:52.040Z,101333.23
2022-08-08T20:21:23.253Z,101335.63
2022-08-08T20:23:57.772Z,101336.58
2022-08-08T20:26:41.811Z,101337.98
2022-08-08T20:29:45.608Z,101337.30
2022-08-08T20:32:28.076Z,101341.01
2022-08-08T20:35:01.177Z,101341.50
2022-08-08T20:37:47.225Z,101344.17
2022-08-08T20:40:38.699Z,101345.96
2022-08-08T20:43:08.658Z,101348.91
2022-08-08T20:46:02.313Z,101345.52
2022-08-08T20:48:33.551Z,101342.92
2022-08-08T20:51:06.393Z,101344.06
2022-08-08T20:54:00.727Z,101345.38
2022-08-08T20:56:35.393Z,101350.33
2022-08-08T20:59:09.195Z,101350.36
2022-08-08T21:02:06.797Z,101350.02
2022-08-08T21:04:27.838Z,101348.29
2022-08-08T21:06:57.323Z,101346.34
2022-08-08T21:09:31.598Z,101347.70
2022-08-08T21:12:09.064Z,101346.05
2022-08-08T21:14:49.154Z,101346.90
2022-08-08T21:17:18.193Z,101344.89
2022-08-08T21:19:48.700Z,101345.09
2022-08-08T21:22:17.932Z,101352.79
2022-08-08T21:24:52.814Z,101354.31
2022-08-08T21:28:05.637Z,101353.07
2022-08-08T21:30:19.226Z,101358.38
2022-08-08T21:32:53.480Z,101360.63
2022-08-08T21:36:17.842Z,101360.20
2022-08-08T21:38:17.043Z,101356.40
2022-08-08T21:40:56.431Z,101357.30
2022-08-08T21:43:34.303Z,101360.88
2022-08-08T21:48:21.282Z,101362.52
2022-08-08T21:48:59.787Z,101360.03
2022-08-08T21:54:16.857Z,101359.73
2022-08-08T21:54:53.945Z,101364.30
2022-08-08T21:57:10.441Z,101363.17
2022-08-08T22:00:02.753Z,101363.88
2022-08-08T22:02:29.187Z,101369.27
2022-08-08T22:04:59.550Z,101367.93
2022-08-08T22:07:39.535Z,101368.09
2022-08-08T22:10:32.281Z,101370.71
2022-08-08T22:13:18.634Z,101368.27
2022-08-08T22:15:59.456Z,101367.13
2022-08-08T22:18:32.538Z,101366.92
2022-08-08T22:21:14.172Z,101366.86
2022-08-08T22:23:59.675Z,101365.98
2022-08-08T22:27:02.627Z,101364.21
2022-08-08T22:29:59.127Z,101367.69
2022-08-08T22:32:21.766Z,101369.58
2022-08-08T22:34:51.580Z,101366.35
2022-08-08T22:37:49.018Z,101368.89
2022-08-08T22:40:17.093Z,101366.50
2022-08-08T22:42:47.505Z,101366.86
2022-08-08T22:45:16.698Z,101369.02
2022-08-08T22:47:48.723Z,101368.56
2022-08-08T22:50:26.883Z,101365.59
2022-08-08T22:54:34.034Z,101367.45
2022-08-08T22:56:01.273Z,101365.02
2022-08-08T22:58:35.063Z,101363.52
2022-08-08T23:01:30.302Z,101362.52
2022-08-08T23:04:00.216Z,101363.23
2022-08-08T23:06:29.559Z,101364.16
2022-08-08T23:09:00.445Z,101366.65
2022-08-08T23:12:18.351Z,101367.44
2022-08-08T23:14:25.602Z,101363.70
2022-08-08T23:16:59.689Z,101361.98
2022-08-08T23:19:32.610Z,101365.88
2022-08-08T23:22:04.979Z,101364.99
2022-08-08T23:24:41.197Z,101361.55
2022-08-08T23:27:37.540Z,101357.81
2022-08-08T23:30:09.446Z,101360.55
2022-08-08T23:32:41.670Z,101358.33
2022-08-08T23:35:17.249Z,101360.80
2022-08-08T23:38:02.332Z,101359.60
2022-08-08T23:40:35.670Z,101354.27
2022-08-08T23:43:05.202Z,101353.21
2022-08-08T23:49:01.306Z,101346.91
2022-08-08T23:49:07.120Z,101346.84
2022-08-08T23:51:42.232Z,101350.34
2022-08-08T23:54:42.126Z,101351.42
2022-08-08T23:56:59.165Z,101348.13
2022-08-08T23:59:30.001Z,101345.37
